Time;durP1;ratioP1;P1;durP2;ratioP2;P2;SDS_P1;SDS_P2;PMS_P1;PMS_P2;Temp;Humidity;BMP_temperature;BMP_pressure;BME280_temperature;BME280_humidity;BME280_pressure;Samples;Min_cycle;Max_cycle;Signal;HPM_P1;HPM_P2
2022/07/06 00:02:17;;;;;;;;;;;;;;;26.63;38.29;100705.31;1705333;82;25841;-57
2022/07/06 00:04:44;;;;;;;;;;;;;;;26.59;37.82;100699.45;1688707;83;26195;-56
2022/07/06 00:07:13;;;;;;;;;;;;;;;26.55;38.54;100694.98;1704045;82;25488;-56
2022/07/06 00:09:41;;;;;;;;;;;;;;;26.52;38.73;100697.39;1691734;82;27626;-57
2022/07/06 00:12:09;;;;;;;;;;;;;;;26.47;38.81;100692.61;1706676;83;25702;-56
2022/07/06 00:14:36;;;;;;;;;;;;;;;26.42;39.00;100704.06;1696831;81;25767;-56
2022/07/06 00:17:03;;;;;;;;;;;;;;;26.32;39.10;100697.25;1688177;82;25899;-56
2022/07/06 00:19:29;;;;;;;;;;;;;;;26.24;39.01;100702.59;1700800;83;25744;-56
2022/07/06 00:21:56;;;;;;;;;;;;;;;26.14;38.50;100691.89;1699432;83;27486;-56
2022/07/06 00:24:23;;;;;;;;;;;;;;;26.05;38.45;100685.34;1688620;82;25810;-57
2022/07/06 00:26:49;;;;;;;;;;;;;;;26.02;38.73;100678.11;1693398;83;25842;-56
2022/07/06 00:29:16;;;;;;;;;;;;;;;26.04;38.88;100682.84;1696671;82;25887;-56
2022/07/06 00:31:42;;;;;;;;;;;;;;;26.03;38.91;100683.37;1677457;83;25802;-56
2022/07/06 00:34:09;;;;;;;;;;;;;;;26.01;39.25;100673.11;1716143;82;28284;-56
2022/07/06 00:36:35;;;;;;;;;;;;;;;25.97;39.25;100673.84;1721285;82;25797;-56
2022/07/06 00:39:03;;;;;;;;;;;;;;;25.93;39.50;100679.00;1713795;82;25525;-56
2022/07/06 00:41:29;;;;;;;;;;;;;;;25.83;39.23;100680.14;1727007;82;25800;-57
2022/07/06 00:43:56;;;;;;;;;;;;;;;25.76;39.31;100681.11;1723369;82;25886;-56
2022/07/06 00:46:27;;;;;;;;;;;;;;;25.72;39.51;100681.30;1722172;81;27104;-56
2022/07/06 00:48:54;;;;;;;;;;;;;;;25.71;39.69;100674.64;1716412;82;25673;-56
2022/07/06 00:51:24;;;;;;;;;;;;;;;25.68;39.69;100680.09;1710489;80;25876;-56
2022/07/06 00:53:51;;;;;;;;;;;;;;;25.65;39.72;100681.94;1717338;81;25859;-56
2022/07/06 00:56:18;;;;;;;;;;;;;;;25.59;39.85;100685.66;1728310;81;25777;-56
2022/07/06 00:58:45;;;;;;;;;;;;;;;25.57;39.59;100683.67;1728226;81;27492;-56
2022/07/06 01:01:11;;;;;;;;;;;;;;;25.54;39.87;100685.00;1708877;82;25832;-56
2022/07/06 01:03:38;;;;;;;;;;;;;;;25.51;39.90;100685.46;1707066;81;25584;-57
2022/07/06 01:06:05;;;;;;;;;;;;;;;25.46;39.74;100692.23;1719860;81;25804;-57
2022/07/06 01:08:32;;;;;;;;;;;;;;;25.44;39.60;100683.37;1721775;81;26533;-56
2022/07/06 01:10:59;;;;;;;;;;;;;;;25.39;39.53;100685.45;1729604;81;28222;-56
2022/07/06 01:13:26;;;;;;;;;;;;;;;25.36;39.54;100680.93;1710896;80;25737;-57
2022/07/06 01:15:54;;;;;;;;;;;;;;;25.34;39.52;100683.94;1720365;81;26296;-56
2022/07/06 01:18:20;;;;;;;;;;;;;;;25.27;39.71;100684.58;1720316;81;25799;-56
2022/07/06 01:20:47;;;;;;;;;;;;;;;25.24;39.64;100687.25;1717175;80;25721;-56
2022/07/06 01:23:13;;;;;;;;;;;;;;;25.19;39.68;100684.37;1713081;81;27414;-56
2022/07/06 01:25:40;;;;;;;;;;;;;;;25.18;39.40;100686.83;1721745;81;26272;-57
2022/07/06 01:28:07;;;;;;;;;;;;;;;25.15;39.50;100685.91;1724124;81;25415;-56
2022/07/06 01:30:34;;;;;;;;;;;;;;;25.12;39.65;100687.23;1711599;80;25832;-56
2022/07/06 01:33:02;;;;;;;;;;;;;;;25.08;39.65;100687.41;1702610;82;25905;-56
2022/07/06 01:35:29;;;;;;;;;;;;;;;25.03;39.75;100687.81;1688786;83;27500;-57
2022/07/06 01:37:57;;;;;;;;;;;;;;;24.98;39.92;100685.21;1694665;82;25458;-56
2022/07/06 01:40:24;;;;;;;;;;;;;;;24.95;40.05;100683.47;1693479;82;25708;-56
2022/07/06 01:42:50;;;;;;;;;;;;;;;24.93;40.08;100687.84;1698925;82;26653;-56
2022/07/06 01:45:19;;;;;;;;;;;;;;;24.91;39.99;100691.91;1689724;83;25759;-56
2022/07/06 01:47:46;;;;;;;;;;;;;;;24.89;39.99;100685.79;1722030;82;27501;-56
2022/07/06 01:50:12;;;;;;;;;;;;;;;24.85;40.09;100688.17;1725236;81;27381;-56
2022/07/06 01:52:41;;;;;;;;;;;;;;;24.80;40.19;100686.64;1726780;80;25813;-55
2022/07/06 01:55:08;;;;;;;;;;;;;;;24.75;40.46;100684.59;1717038;81;25816;-57
2022/07/06 01:57:36;;;;;;;;;;;;;;;24.73;40.46;100684.52;1729896;81;25849;-56
2022/07/06 02:00:09;;;;;;;;;;;;;;;24.72;40.30;100685.59;1735830;80;27500;-57
2022/07/06 02:02:43;;;;;;;;;;;;;;;24.69;40.58;100689.66;1725280;81;25958;-56
2022/07/06 02:05:11;;;;;;;;;;;;;;;24.65;40.67;100683.75;1719785;80;25691;-56
2022/07/06 02:07:38;;;;;;;;;;;;;;;24.62;40.85;100686.12;1682394;82;25813;-56
2022/07/06 02:10:08;;;;;;;;;;;;;;;24.57;40.76;100679.95;1696971;83;25903;-57
2022/07/06 02:12:34;;;;;;;;;;;;;;;24.54;40.79;100679.02;1690864;83;28150;-56
2022/07/06 02:15:01;;;;;;;;;;;;;;;24.50;41.18;100684.70;1693535;83;25762;-57
2022/07/06 02:17:27;;;;;;;;;;;;;;;24.46;41.19;100691.72;1694797;82;25738;-56
2022/07/06 02:19:54;;;;;;;;;;;;;;;24.42;41.18;100684.47;1689375;82;25819;-56
2022/07/06 02:22:21;;;;;;;;;;;;;;;24.38;41.64;100685.47;1691293;82;25994;-57
2022/07/06 02:24:49;;;;;;;;;;;;;;;24.35;41.74;100690.05;1688875;83;27535;-56
2022/07/06 02:27:16;;;;;;;;;;;;;;;24.30;41.57;100685.78;1694121;83;25839;-56
2022/07/06 02:29:43;;;;;;;;;;;;;;;24.25;41.98;100688.36;1685616;83;25521;-56
2022/07/06 02:32:10;;;;;;;;;;;;;;;24.20;42.12;100688.22;1731981;80;25806;-56
2022/07/06 02:34:38;;;;;;;;;;;;;;;24.14;42.33;100684.48;1746691;80;25761;-56
2022/07/06 02:37:05;;;;;;;;;;;;;;;24.11;42.48;100688.22;1724685;82;27546;-56
2022/07/06 02:39:31;;;;;;;;;;;;;;;24.04;42.73;100685.54;1722864;82;25682;-56
2022/07/06 02:41:57;;;;;;;;;;;;;;;24.00;42.69;100687.08;1739196;80;25484;-57
2022/07/06 02:44:25;;;;;;;;;;;;;;;23.98;42.52;100682.34;1729877;81;26925;-56
2022/07/06 02:46:52;;;;;;;;;;;;;;;23.96;42.62;100681.20;1718963;81;25887;-56
2022/07/06 02:49:20;;;;;;;;;;;;;;;23.93;42.33;100681.62;1732451;81;28388;-56
2022/07/06 02:51:47;;;;;;;;;;;;;;;23.87;42.64;100690.23;1725232;81;25758;-56
2022/07/06 02:54:14;;;;;;;;;;;;;;;23.85;42.70;100685.48;1731616;80;26391;-56
2022/07/06 02:56:41;;;;;;;;;;;;;;;23.86;42.73;100678.11;1731016;81;25813;-56
2022/07/06 02:59:09;;;;;;;;;;;;;;;23.82;42.84;100686.48;1736166;81;25768;-57
2022/07/06 03:01:36;;;;;;;;;;;;;;;23.81;42.86;100684.28;1731377;81;27337;-56
2022/07/06 03:04:03;;;;;;;;;;;;;;;23.82;42.79;100690.59;1724056;81;25826;-56
2022/07/06 03:06:29;;;;;;;;;;;;;;;23.82;42.69;100690.59;1722320;81;25675;-56
2022/07/06 03:08:57;;;;;;;;;;;;;;;23.81;42.74;100688.91;1729647;81;25836;-57
2022/07/06 03:11:23;;;;;;;;;;;;;;;23.79;42.93;100688.33;1729840;81;25812;-56
2022/07/06 03:13:50;;;;;;;;;;;;;;;23.81;42.83;100689.77;1727679;81;27527;-56
2022/07/06 03:16:17;;;;;;;;;;;;;;;23.83;43.13;100679.92;1736642;82;25617;-56
2022/07/06 03:18:43;;;;;;;;;;;;;;;23.85;42.95;100677.80;1732873;80;25774;-56
2022/07/06 03:21:10;;;;;;;;;;;;;;;23.85;43.08;100682.74;1725415;80;25856;-56
2022/07/06 03:23:37;;;;;;;;;;;;;;;23.86;43.12;100676.18;1726359;81;26007;-56
2022/07/06 03:26:05;;;;;;;;;;;;;;;23.87;43.10;100682.53;1735498;81;27547;-56
2022/07/06 03:28:32;;;;;;;;;;;;;;;23.88;43.47;100681.47;1717189;81;25804;-56
2022/07/06 03:30:59;;;;;;;;;;;;;;;23.91;43.50;100679.11;1716140;81;25814;-56
2022/07/06 03:33:25;;;;;;;;;;;;;;;23.95;43.20;100675.40;1711780;81;25807;-56
2022/07/06 03:35:53;;;;;;;;;;;;;;;23.98;43.41;100679.05;1719668;80;25753;-56
2022/07/06 03:38:20;;;;;;;;;;;;;;;24.02;43.18;100671.22;1724454;80;27483;-57
2022/07/06 03:40:47;;;;;;;;;;;;;;;24.05;43.07;100670.22;1714204;80;25719;-56
2022/07/06 03:43:13;;;;;;;;;;;;;;;24.08;43.36;100673.03;1724445;81;26401;-56
2022/07/06 03:45:41;;;;;;;;;;;;;;;24.11;43.31;100671.73;1718269;80;25873;-56
2022/07/06 03:48:08;;;;;;;;;;;;;;;24.13;43.28;100677.30;1727893;80;25871;-57
2022/07/06 03:50:36;;;;;;;;;;;;;;;24.18;43.28;100673.86;1719162;80;27575;-56
2022/07/06 03:53:03;;;;;;;;;;;;;;;24.18;43.43;100674.72;1732365;80;25898;-56
2022/07/06 03:55:30;;;;;;;;;;;;;;;24.21;43.36;100665.17;1728269;81;25844;-56
2022/07/06 03:57:59;;;;;;;;;;;;;;;24.25;43.51;100665.00;1735289;81;25864;-55
2022/07/06 04:00:26;;;;;;;;;;;;;;;24.29;43.36;100668.98;1731035;80;25753;-56
2022/07/06 04:02:54;;;;;;;;;;;;;;;24.33;43.43;100674.34;1732581;81;27507;-57
2022/07/06 04:05:23;;;;;;;;;;;;;;;24.37;43.51;100674.16;1724205;80;25516;-56
2022/07/06 04:07:52;;;;;;;;;;;;;;;24.42;43.48;100673.47;1725233;80;25729;-56
2022/07/06 04:10:20;;;;;;;;;;;;;;;24.47;43.40;100669.52;1752445;80;25865;-57
2022/07/06 04:12:47;;;;;;;;;;;;;;;24.49;43.81;100664.59;1741271;80;25738;-56
2022/07/06 04:15:15;;;;;;;;;;;;;;;24.51;44.03;100666.59;1753410;80;27527;-56
2022/07/06 04:17:53;;;;;;;;;;;;;;;24.54;43.78;100662.01;1756977;80;25900;-56
2022/07/06 04:20:23;;;;;;;;;;;;;;;24.60;43.60;100666.27;1755615;80;25704;-56
2022/07/06 04:22:50;;;;;;;;;;;;;;;24.64;43.65;100666.94;1749827;80;25875;-56
2022/07/06 04:25:18;;;;;;;;;;;;;;;24.71;43.67;100671.53;1757536;80;26054;-56
2022/07/06 04:27:45;;;;;;;;;;;;;;;24.72;43.38;100664.45;1750848;80;27484;-56
2022/07/06 04:30:13;;;;;;;;;;;;;;;24.74;43.42;100666.95;1736125;80;25782;-56
2022/07/06 04:32:41;;;;;;;;;;;;;;;24.71;43.46;100671.53;1688149;82;25881;-57
2022/07/06 04:35:09;;;;;;;;;;;;;;;24.72;43.61;100667.72;1679465;83;26411;-56
2022/07/06 04:37:35;;;;;;;;;;;;;;;24.76;43.28;100665.64;1700672;81;25692;-56
2022/07/06 04:40:03;;;;;;;;;;;;;;;24.81;43.41;100660.30;1690138;82;27494;-57
2022/07/06 04:42:30;;;;;;;;;;;;;;;24.88;43.36;100657.97;1699094;83;25460;-57
2022/07/06 04:44:57;;;;;;;;;;;;;;;24.94;43.66;100656.50;1693360;82;25836;-56
2022/07/06 04:47:23;;;;;;;;;;;;;;;24.99;43.50;100664.05;1730127;81;25882;-56
2022/07/06 04:49:50;;;;;;;;;;;;;;;25.02;43.73;100664.11;1724849;81;25926;-57
2022/07/06 04:52:17;;;;;;;;;;;;;;;25.07;43.62;100668.36;1730114;81;27445;-56
2022/07/06 04:54:44;;;;;;;;;;;;;;;25.08;43.37;100663.16;1717199;81;25703;-56
2022/07/06 04:57:10;;;;;;;;;;;;;;;25.12;43.57;100656.12;1714194;81;25752;-57
2022/07/06 04:59:37;;;;;;;;;;;;;;;25.15;43.50;100652.36;1729439;81;25801;-56
2022/07/06 05:02:04;;;;;;;;;;;;;;;25.20;43.43;100654.41;1708696;82;25722;-56
2022/07/06 05:04:32;;;;;;;;;;;;;;;25.23;43.43;100651.70;1718483;81;27654;-56
2022/07/06 05:06:59;;;;;;;;;;;;;;;25.23;43.38;100656.69;1692058;83;25885;-56
2022/07/06 05:09:28;;;;;;;;;;;;;;;25.26;43.39;100655.38;1683292;84;25766;-56
2022/07/06 05:11:56;;;;;;;;;;;;;;;25.29;43.32;100651.61;1650349;85;25816;-56
2022/07/06 05:14:23;;;;;;;;;;;;;;;25.33;43.22;100648.39;1696338;83;25880;-56
2022/07/06 05:16:50;;;;;;;;;;;;;;;25.38;42.87;100654.01;1685344;82;27603;-56
2022/07/06 05:19:17;;;;;;;;;;;;;;;25.43;43.21;100650.02;1690131;83;25740;-56
2022/07/06 05:21:45;;;;;;;;;;;;;;;25.47;42.88;100649.86;1689059;82;25711;-57
2022/07/06 05:24:12;;;;;;;;;;;;;;;25.53;42.82;100650.27;1674487;83;26237;-56
2022/07/06 05:26:39;;;;;;;;;;;;;;;25.58;42.90;100650.93;1686697;84;25790;-57
2022/07/06 05:29:08;;;;;;;;;;;;;;;25.61;42.73;100656.80;1699559;81;28330;-57
2022/07/06 05:31:35;;;;;;;;;;;;;;;25.67;42.06;100658.30;1738945;81;25855;-57
2022/07/06 05:34:01;;;;;;;;;;;;;;;25.70;41.88;100653.16;1745984;81;25499;-56
2022/07/06 05:36:28;;;;;;;;;;;;;;;25.73;41.98;100655.96;1726461;82;26591;-56
2022/07/06 05:38:55;;;;;;;;;;;;;;;25.74;41.93;100658.47;1717718;82;25678;-56
2022/07/06 05:41:23;;;;;;;;;;;;;;;25.77;42.75;100646.16;1713298;82;28457;-56
2022/07/06 05:43:49;;;;;;;;;;;;;;;25.82;43.01;100645.43;1737089;82;25750;-57
2022/07/06 05:46:16;;;;;;;;;;;;;;;25.85;42.96;100644.41;1719545;82;25745;-56
2022/07/06 05:51:30;;;;;;;;;;;;;;;25.98;42.61;100649.34;1693086;82;25857;-56
2022/07/06 05:53:57;;;;;;;;;;;;;;;26.03;42.71;100648.91;1695916;82;27639;-56
2022/07/06 05:56:24;;;;;;;;;;;;;;;26.07;42.58;100640.47;1709420;83;25829;-56
2022/07/06 05:58:52;;;;;;;;;;;;;;;26.09;42.35;100647.97;1707941;82;25798;-56
2022/07/06 06:01:18;;;;;;;;;;;;;;;26.12;42.30;100648.05;1699275;82;25831;-56
2022/07/06 06:03:47;;;;;;;;;;;;;;;26.16;42.11;100649.77;1701461;83;25730;-56
2022/07/06 06:06:14;;;;;;;;;;;;;;;26.22;42.09;100657.05;1746870;80;27480;-56
2022/07/06 06:08:41;;;;;;;;;;;;;;;26.30;42.05;100653.09;1762450;80;25874;-56
2022/07/06 06:11:08;;;;;;;;;;;;;;;26.36;42.10;100646.59;1766605;80;25711;-57
2022/07/06 06:13:34;;;;;;;;;;;;;;;26.45;41.45;100650.63;1765915;80;25868;-57
2022/07/06 06:16:01;;;;;;;;;;;;;;;26.51;41.58;100649.64;1762707;80;25482;-57
2022/07/06 06:18:29;;;;;;;;;;;;;;;26.58;41.36;100650.06;1754212;80;27584;-57
2022/07/06 06:20:55;;;;;;;;;;;;;;;26.64;41.03;100645.75;1761679;80;25747;-58
2022/07/06 06:23:22;;;;;;;;;;;;;;;26.71;41.10;100641.47;1768042;80;25702;-57
2022/07/06 06:25:49;;;;;;;;;;;;;;;26.78;41.20;100644.11;1763368;80;25804;-57
2022/07/06 06:28:15;;;;;;;;;;;;;;;26.86;41.41;100640.39;1765053;80;25784;-57
2022/07/06 06:30:42;;;;;;;;;;;;;;;26.94;41.27;100650.75;1741111;80;27485;-58
2022/07/06 06:33:17;;;;;;;;;;;;;;;27.00;41.32;100648.37;1721054;82;27247;-56
2022/07/06 06:35:46;;;;;;;;;;;;;;;27.05;40.85;100639.34;1732538;82;25682;-56
2022/07/06 06:38:13;;;;;;;;;;;;;;;27.13;40.79;100643.89;1725100;82;25813;-57
2022/07/06 06:40:40;;;;;;;;;;;;;;;27.21;40.75;100647.34;1717586;82;25834;-57
2022/07/06 06:43:06;;;;;;;;;;;;;;;27.28;40.45;100646.63;1725289;82;27497;-57
2022/07/06 06:45:35;;;;;;;;;;;;;;;27.37;40.20;100643.74;1731956;82;25772;-57
2022/07/06 06:48:01;;;;;;;;;;;;;;;27.45;40.17;100641.97;1751385;80;25701;-56
2022/07/06 06:50:29;;;;;;;;;;;;;;;27.54;40.15;100645.68;1765786;80;26520;-57
2022/07/06 06:52:55;;;;;;;;;;;;;;;27.59;40.16;100641.59;1752425;80;25445;-57
2022/07/06 06:55:25;;;;;;;;;;;;;;;27.68;40.23;100651.69;1746860;80;26018;-57
2022/07/06 06:57:52;;;;;;;;;;;;;;;27.74;39.93;100647.37;1746834;80;25894;-57
2022/07/06 07:00:19;;;;;;;;;;;;;;;27.80;40.07;100646.34;1755630;80;25458;-56
2022/07/06 07:02:47;;;;;;;;;;;;;;;27.87;40.03;100653.61;1771502;80;25812;-56
2022/07/06 07:05:14;;;;;;;;;;;;;;;27.97;39.92;100648.23;1764994;80;25847;-57
2022/07/06 07:07:41;;;;;;;;;;;;;;;28.04;40.03;100648.05;1758537;80;27525;-56
2022/07/06 07:10:08;;;;;;;;;;;;;;;28.13;40.00;100647.06;1765083;80;25627;-57
2022/07/06 07:12:46;;;;;;;;;;;;;;;28.23;39.74;100645.29;1750696;80;25823;-56
2022/07/06 07:15:13;;;;;;;;;;;;;;;28.35;39.25;100645.67;1764223;80;26399;-56
2022/07/06 07:17:40;;;;;;;;;;;;;;;28.45;39.22;100650.52;1768694;80;25722;-56
2022/07/06 07:20:08;;;;;;;;;;;;;;;28.53;39.40;100650.05;1741551;81;28286;-57
2022/07/06 07:22:35;;;;;;;;;;;;;;;28.63;38.63;100647.39;1763976;80;25866;-57
2022/07/06 07:25:03;;;;;;;;;;;;;;;28.69;38.67;100648.26;1766356;80;25747;-56
2022/07/06 07:27:30;;;;;;;;;;;;;;;28.77;38.59;100646.47;1766422;80;26515;-55
2022/07/06 07:29:57;;;;;;;;;;;;;;;28.83;38.72;100641.26;1767575;80;25433;-57
2022/07/06 07:32:23;;;;;;;;;;;;;;;28.92;38.91;100637.45;1746334;80;27115;-57
2022/07/06 07:34:49;;;;;;;;;;;;;;;29.03;38.76;100635.06;1733441;81;26122;-56
2022/07/06 07:37:16;;;;;;;;;;;;;;;29.12;38.48;100634.05;1734957;81;25911;-56
2022/07/06 07:39:42;;;;;;;;;;;;;;;29.20;38.36;100632.17;1726794;82;25825;-55
2022/07/06 07:42:09;;;;;;;;;;;;;;;29.27;37.50;100630.53;1724156;81;25764;-56
2022/07/06 07:44:35;;;;;;;;;;;;;;;29.32;37.61;100625.09;1720248;82;28403;-56
2022/07/06 07:47:03;;;;;;;;;;;;;;;29.42;37.32;100620.72;1716629;81;26087;-56
2022/07/06 07:49:30;;;;;;;;;;;;;;;29.50;37.03;100614.67;1714019;81;25677;-56
2022/07/06 07:51:56;;;;;;;;;;;;;;;29.58;37.13;100612.78;1718023;81;26604;-56
2022/07/06 07:54:23;;;;;;;;;;;;;;;29.70;36.46;100611.75;1717811;82;25693;-56
2022/07/06 07:56:49;;;;;;;;;;;;;;;29.80;35.81;100611.24;1728289;81;27496;-57
2022/07/06 07:59:16;;;;;;;;;;;;;;;29.89;35.33;100615.73;1714490;82;25679;-57
2022/07/06 08:01:43;;;;;;;;;;;;;;;29.96;35.34;100613.58;1727923;80;25696;-57
2022/07/06 08:04:09;;;;;;;;;;;;;;;30.01;35.59;100610.53;1725523;81;25900;-57
2022/07/06 08:06:36;;;;;;;;;;;;;;;30.07;35.42;100603.92;1697119;81;25876;-57
2022/07/06 08:09:04;;;;;;;;;;;;;;;30.16;35.00;100606.45;1694989;82;27641;-57
2022/07/06 08:11:31;;;;;;;;;;;;;;;30.22;35.09;100605.35;1683084;83;25902;-56
2022/07/06 08:13:57;;;;;;;;;;;;;;;30.29;34.92;100605.92;1700568;81;25917;-57
2022/07/06 08:16:25;;;;;;;;;;;;;;;30.40;35.33;100601.22;1688066;82;25988;-57
2022/07/06 08:18:51;;;;;;;;;;;;;;;30.53;34.97;100605.45;1693397;83;25755;-58
2022/07/06 08:21:18;;;;;;;;;;;;;;;30.65;34.25;100602.97;1697014;82;27627;-57
2022/07/06 08:23:44;;;;;;;;;;;;;;;30.82;33.08;100601.34;1680934;83;25904;-57
2022/07/06 08:26:11;;;;;;;;;;;;;;;31.01;32.46;100605.78;1696438;82;25796;-57
2022/07/06 08:28:38;;;;;;;;;;;;;;;31.12;31.84;100604.70;1712079;81;26697;-58
2022/07/06 08:31:04;;;;;;;;;;;;;;;31.22;32.19;100599.68;1721001;81;27417;-58
2022/07/06 08:33:31;;;;;;;;;;;;;;;31.33;32.21;100602.73;1710435;81;27434;-57
2022/07/06 08:35:59;;;;;;;;;;;;;;;31.42;32.48;100597.45;1716864;82;25490;-57
2022/07/06 08:38:26;;;;;;;;;;;;;;;31.51;31.37;100601.30;1720425;82;25719;-57
2022/07/06 08:40:52;;;;;;;;;;;;;;;31.60;31.56;100596.58;1714097;82;25748;-56
2022/07/06 08:43:19;;;;;;;;;;;;;;;31.74;31.60;100596.27;1724587;82;26317;-56
2022/07/06 08:45:48;;;;;;;;;;;;;;;31.93;31.04;100603.42;1726356;80;26918;-57
2022/07/06 08:48:15;;;;;;;;;;;;;;;32.05;29.44;100604.48;1728493;80;25688;-57
2022/07/06 08:50:42;;;;;;;;;;;;;;;32.14;29.17;100585.25;1733279;80;25739;-57
2022/07/06 08:53:08;;;;;;;;;;;;;;;32.31;28.97;100593.28;1724348;81;26578;-57
2022/07/06 08:55:35;;;;;;;;;;;;;;;32.43;28.45;100592.34;1726681;81;25490;-57
2022/07/06 08:58:04;;;;;;;;;;;;;;;32.52;28.85;100589.80;1719022;82;27386;-57
2022/07/06 09:00:33;;;;;;;;;;;;;;;32.65;28.52;100593.89;1723775;82;25803;-57
2022/07/06 09:03:00;;;;;;;;;;;;;;;32.79;28.31;100581.56;1721042;82;25731;-57
2022/07/06 09:05:28;;;;;;;;;;;;;;;32.98;28.06;100579.45;1729447;82;26089;-57
2022/07/06 09:07:56;;;;;;;;;;;;;;;33.17;26.55;100580.36;1718977;82;25768;-57
2022/07/06 09:10:23;;;;;;;;;;;;;;;33.32;26.81;100588.33;1731598;80;27533;-57
2022/07/06 09:12:49;;;;;;;;;;;;;;;33.47;27.13;100580.40;1735812;80;25654;-57
2022/07/06 09:15:15;;;;;;;;;;;;;;;33.59;26.97;100564.07;1726293;81;25844;-57
2022/07/06 09:17:43;;;;;;;;;;;;;;;33.81;26.79;100573.28;1723679;81;26534;-57
2022/07/06 09:20:12;;;;;;;;;;;;;;;33.95;25.57;100567.02;1716100;80;25646;-57
2022/07/06 09:22:40;;;;;;;;;;;;;;;34.10;24.84;100568.20;1715340;81;27503;-58
2022/07/06 09:25:12;;;;;;;;;;;;;;;34.20;24.83;100573.38;1724117;82;25852;-57
2022/07/06 09:27:40;;;;;;;;;;;;;;;34.14;24.29;100561.45;1720695;81;25811;-57
2022/07/06 09:30:09;;;;;;;;;;;;;;;34.10;22.51;100559.83;1719816;81;26498;-57
2022/07/06 09:32:44;;;;;;;;;;;;;;;34.25;22.71;100560.18;1726402;81;25883;-57
2022/07/06 09:35:28;;;;;;;;;;;;;;;34.50;22.62;100557.34;1727609;81;27542;-57
2022/07/06 09:38:07;;;;;;;;;;;;;;;34.64;22.84;100538.11;1714520;82;26096;-56
2022/07/06 09:40:39;;;;;;;;;;;;;;;35.02;23.45;100553.13;1732875;80;25742;-57
2022/07/06 09:43:14;;;;;;;;;;;;;;;35.41;23.06;100555.48;1727652;80;26633;-57
2022/07/06 09:45:43;;;;;;;;;;;;;;;35.71;23.55;100550.42;1717638;81;25647;-57
2022/07/06 09:48:18;;;;;;;;;;;;;;;36.11;23.36;100549.05;1688461;82;27544;-57
2022/07/06 09:50:53;;;;;;;;;;;;;;;36.46;21.89;100545.19;1681955;83;25715;-56
2022/07/06 09:53:21;;;;;;;;;;;;;;;36.70;21.23;100547.67;1694413;82;25746;-56
2022/07/06 09:55:49;;;;;;;;;;;;;;;36.95;20.68;100541.17;1697427;83;26412;-56
2022/07/06 09:58:17;;;;;;;;;;;;;;;37.20;20.53;100531.81;1695178;81;25859;-57
2022/07/06 10:00:44;;;;;;;;;;;;;;;37.47;19.69;100544.00;1719896;82;27399;-56
2022/07/06 10:03:12;;;;;;;;;;;;;;;37.64;19.85;100533.41;1717349;82;26456;-56
2022/07/06 10:05:40;;;;;;;;;;;;;;;37.80;19.23;100528.14;1725006;81;25805;-57
2022/07/06 10:08:11;;;;;;;;;;;;;;;37.88;19.33;100530.17;1722476;81;25880;-57
2022/07/06 10:10:39;;;;;;;;;;;;;;;37.91;18.76;100533.73;1719451;80;25798;-57
2022/07/06 10:13:07;;;;;;;;;;;;;;;38.14;18.79;100530.80;1717273;81;27473;-58
2022/07/06 10:15:35;;;;;;;;;;;;;;;38.45;18.68;100529.26;1712938;80;26079;-58
2022/07/06 10:18:04;;;;;;;;;;;;;;;38.73;18.94;100520.42;1719651;81;25702;-58
2022/07/06 10:20:33;;;;;;;;;;;;;;;38.90;17.95;100523.00;1718882;80;25812;-57
2022/07/06 10:23:01;;;;;;;;;;;;;;;39.17;18.16;100520.33;1714425;80;25784;-58
2022/07/06 10:25:28;;;;;;;;;;;;;;;39.71;17.46;100526.83;1717570;81;27544;-56
2022/07/06 10:27:56;;;;;;;;;;;;;;;40.22;16.96;100518.34;1722669;80;25819;-57
2022/07/06 10:30:23;;;;;;;;;;;;;;;40.70;16.50;100515.27;1726714;80;25811;-57
2022/07/06 10:32:51;;;;;;;;;;;;;;;40.49;17.15;100517.52;1700204;81;26469;-56
2022/07/06 10:35:21;;;;;;;;;;;;;;;40.24;17.24;100507.31;1728952;81;25749;-57
2022/07/06 10:38:04;;;;;;;;;;;;;;;40.70;16.54;100504.59;1740752;81;27553;-56
2022/07/06 10:43:21;;;;;;;;;;;;;;;40.94;15.29;100512.26;1734602;81;25739;-57
2022/07/06 10:45:50;;;;;;;;;;;;;;;40.98;15.38;100496.30;1731991;80;25803;-57
2022/07/06 10:48:20;;;;;;;;;;;;;;;41.39;15.20;100491.63;1723303;81;25929;-56
2022/07/06 10:50:53;;;;;;;;;;;;;;;41.81;15.01;100492.56;1722332;81;27517;-57
2022/07/06 10:53:28;;;;;;;;;;;;;;;42.31;15.11;100491.83;1724957;82;26953;-57
2022/07/06 10:55:56;;;;;;;;;;;;;;;42.75;14.93;100486.80;1731046;81;25763;-59
2022/07/06 10:58:42;;;;;;;;;;;;;;;43.20;14.02;100485.55;1716828;82;25833;-57
2022/07/06 11:01:10;;;;;;;;;;;;;;;43.61;14.04;100472.58;1730424;80;25813;-58
2022/07/06 11:03:41;;;;;;;;;;;;;;;43.78;13.24;100471.35;1729623;81;27480;-57
2022/07/06 11:06:12;;;;;;;;;;;;;;;43.99;13.03;100473.84;1746245;80;25727;-57
2022/07/06 11:08:53;;;;;;;;;;;;;;;44.02;12.91;100470.25;1751678;80;25792;-57
2022/07/06 11:11:22;;;;;;;;;;;;;;;44.01;12.96;100469.22;1753022;80;25867;-59
2022/07/06 11:13:52;;;;;;;;;;;;;;;42.94;13.36;100471.95;1745460;80;25815;-58
2022/07/06 11:16:19;;;;;;;;;;;;;;;42.11;13.93;100473.30;1747573;80;27705;-58
2022/07/06 11:18:49;;;;;;;;;;;;;;;41.86;14.23;100456.99;1752696;80;25811;-59
2022/07/06 11:21:23;;;;;;;;;;;;;;;42.02;14.07;100463.55;1763232;80;25933;-57
2022/07/06 11:23:53;;;;;;;;;;;;;;;42.63;14.23;100453.75;1742356;80;26237;-57
2022/07/06 11:26:21;;;;;;;;;;;;;;;43.52;13.01;100455.78;1723558;81;26611;-57
2022/07/06 11:28:48;;;;;;;;;;;;;;;44.07;13.04;100439.38;1710653;80;27558;-57
2022/07/06 11:31:16;;;;;;;;;;;;;;;44.58;11.37;100452.52;1726234;80;43939;-57
2022/07/06 11:33:46;;;;;;;;;;;;;;;44.67;11.75;100442.36;1738819;80;25868;-58
2022/07/06 11:36:16;;;;;;;;;;;;;;;44.95;11.03;100454.01;1730099;81;25967;-58
2022/07/06 11:38:43;;;;;;;;;;;;;;;44.89;11.29;100459.77;1732668;81;26874;-57
2022/07/06 11:41:14;;;;;;;;;;;;;;;44.79;11.66;100435.08;1710951;81;27406;-57
2022/07/06 11:43:45;;;;;;;;;;;;;;;45.27;12.07;100443.78;1723675;81;25845;-56
2022/07/06 11:46:27;;;;;;;;;;;;;;;45.27;11.74;100442.36;1723947;80;25895;-56
2022/07/06 11:48:57;;;;;;;;;;;;;;;44.52;12.10;100443.50;1730604;81;25948;-57
2022/07/06 11:51:26;;;;;;;;;;;;;;;43.47;12.21;100441.91;1723629;82;25776;-56
2022/07/06 11:53:55;;;;;;;;;;;;;;;42.86;12.54;100461.05;1725725;81;27485;-57
2022/07/06 11:56:27;;;;;;;;;;;;;;;42.98;12.50;100452.47;1718561;81;26231;-58
2022/07/06 11:58:58;;;;;;;;;;;;;;;42.63;12.66;100446.67;1715833;81;25831;-57
2022/07/06 12:01:30;;;;;;;;;;;;;;;42.03;13.29;100451.67;1739346;80;25908;-57
2022/07/06 12:04:00;;;;;;;;;;;;;;;41.95;13.44;100447.00;1727834;80;25974;-56
2022/07/06 12:06:27;;;;;;;;;;;;;;;42.42;13.55;100439.86;1746809;80;27587;-58
2022/07/06 12:08:56;;;;;;;;;;;;;;;42.98;12.92;100443.98;1690759;81;25915;-58
2022/07/06 12:11:28;;;;;;;;;;;;;;;43.59;12.38;100440.97;1722820;81;26222;-58
2022/07/06 12:13:58;;;;;;;;;;;;;;;43.77;12.47;100442.19;1738925;81;25918;-57
2022/07/06 12:16:34;;;;;;;;;;;;;;;44.30;12.14;100434.36;1716105;81;25907;-58
2022/07/06 12:19:03;;;;;;;;;;;;;;;44.83;11.67;100440.23;1722603;81;27202;-58
2022/07/06 12:21:30;;;;;;;;;;;;;;;45.24;11.58;100443.11;1713388;81;25705;-57
2022/07/06 12:23:58;;;;;;;;;;;;;;;45.74;11.29;100445.28;1719017;81;25818;-57
2022/07/06 12:26:29;;;;;;;;;;;;;;;45.99;10.99;100434.05;1721286;81;26183;-58
2022/07/06 12:29:10;;;;;;;;;;;;;;;46.46;10.40;100434.56;1727765;81;25949;-59
2022/07/06 12:31:38;;;;;;;;;;;;;;;46.75;10.28;100429.98;1729092;81;27472;-58
2022/07/06 12:34:06;;;;;;;;;;;;;;;47.25;9.67;100435.87;1713156;81;25760;-58
2022/07/06 12:36:36;;;;;;;;;;;;;;;47.13;9.81;100433.55;1691171;83;25814;-58
2022/07/06 12:39:06;;;;;;;;;;;;;;;47.10;9.98;100426.38;1699165;82;26620;-57
2022/07/06 12:41:34;;;;;;;;;;;;;;;47.25;9.83;100421.01;1714123;81;25793;-57
2022/07/06 12:44:03;;;;;;;;;;;;;;;47.45;9.66;100416.45;1693820;82;27489;-60
2022/07/06 12:46:35;;;;;;;;;;;;;;;47.24;9.43;100413.67;1718851;81;25741;-59
2022/07/06 12:49:06;;;;;;;;;;;;;;;47.52;9.67;100412.23;1690074;83;27132;-60